Time;durP1;ratioP1;P1;durP2;ratioP2;P2;SDS_P1;SDS_P2;PMS_P1;PMS_P2;Temp;Humidity;BMP_temperature;BMP_pressure;BME280_temperature;BME280_humidity;BME280_pressure;Samples;Min_cycle;Max_cycle;Signal;HPM_P1;HPM_P2
2024/01/15 00:00:16;;;;;;;37.17;18.98;;;-0.90;99.90;;;;;;5062606;28;20075;-79
2024/01/15 00:02:42;;;;;;;50.88;20.02;;;;;;;;;;5062756;28;20021;-79
2024/01/15 00:05:08;;;;;;;45.38;20.75;;;;;;;;;;5061319;28;20096;-77
2024/01/15 00:07:35;;;;;;;44.88;18.83;;;-1.30;99.90;;;;;;5086803;23;20119;-76
2024/01/15 00:10:01;;;;;;;40.25;19.88;;;-1.40;98.70;;;;;;5084109;28;20016;-75
2024/01/15 00:12:28;;;;;;;36.90;16.42;;;;;;;;;;5102646;28;20107;-74
2024/01/15 00:14:54;;;;;;;26.08;12.35;;;-1.20;99.60;;;;;;5087176;28;20038;-74
2024/01/15 00:17:20;;;;;;;65.50;23.58;;;;;;;;;;5086811;28;20089;-74
2024/01/15 00:19:46;;;;;;;122.72;39.38;;;;;;;;;;5105176;28;20044;-74
2024/01/15 00:22:12;;;;;;;59.83;22.38;;;;;;;;;;5103390;28;20027;-75
2024/01/15 00:24:38;;;;;;;42.15;17.92;;;;;;;;;;5105776;28;20038;-74
2024/01/15 00:27:04;;;;;;;42.25;16.65;;;;;;;;;;5105473;28;20059;-75
2024/01/15 00:29:30;;;;;;;42.33;17.58;;;;;;;;;;5087294;28;20019;-74
2024/01/15 00:31:56;;;;;;;37.70;17.17;;;;;;;;;;5105366;28;20035;-75
2024/01/15 00:34:22;;;;;;;39.97;18.73;;;;;;;;;;5105076;28;20408;-74
2024/01/15 00:36:49;;;;;;;46.17;19.02;;;;;;;;;;5087412;28;20052;-75
2024/01/15 00:39:16;;;;;;;51.67;19.90;;;;;;;;;;5103430;28;20053;-74
2024/01/15 00:41:42;;;;;;;42.25;17.65;;;;;;;;;;5105220;28;20024;-74
2024/01/15 00:44:08;;;;;;;42.45;18.75;;;;;;;;;;5105227;28;20041;-74
2024/01/15 00:46:43;;;;;;;50.45;21.15;;;-0.70;99.90;;;;;;5094704;28;20325;-74
2024/01/15 00:49:09;;;;;;;48.85;20.95;;;;;;;;;;5105403;28;20091;-74
2024/01/15 00:51:35;;;;;;;58.45;22.70;;;;;;;;;;5087038;28;20430;-74
2024/01/15 00:54:02;;;;;;;63.40;26.67;;;;;;;;;;5084839;28;20126;-74
2024/01/15 00:56:28;;;;;;;56.25;23.33;;;;;;;;;;5099224;28;20020;-74
2024/01/15 00:58:54;;;;;;;43.55;19.60;;;;;;;;;;5105563;28;20043;-74
2024/01/15 01:01:20;;;;;;;48.00;20.25;;;;;;;;;;5086917;28;20111;-74
2024/01/15 01:03:46;;;;;;;52.17;23.02;;;;;;;;;;5105533;28;20036;-75
2024/01/15 01:06:12;;;;;;;43.17;18.92;;;;;;;;;;5105530;28;20224;-75
2024/01/15 01:08:39;;;;;;;41.67;18.90;;;-0.20;93.30;;;;;;5105532;28;20120;-74
2024/01/15 01:11:06;;;;;;;40.78;18.60;;;;;;;;;;5105625;28;20087;-74
2024/01/15 01:13:32;;;;;;;37.28;17.52;;;;;;;;;;5105868;28;20069;-75
2024/01/15 01:15:58;;;;;;;37.17;17.30;;;-0.10;99.90;;;;;;5106596;28;20346;-75
2024/01/15 01:18:24;;;;;;;38.25;18.23;;;;;;;;;;5088047;28;20091;-75
2024/01/15 01:20:51;;;;;;;39.08;17.70;;;-0.10;99.90;;;;;;5104774;28;20040;-74
2024/01/15 01:23:17;;;;;;;42.60;19.58;;;;;;;;;;5086200;28;20032;-74
2024/01/15 01:25:43;;;;;;;32.80;14.48;;;;;;;;;;5091281;28;20301;-76
2024/01/15 01:28:09;;;;;;;36.42;15.10;;;;;;;;;;5066091;28;20037;-77
2024/01/15 01:30:35;;;;;;;27.60;13.30;;;;;;;;;;5065558;28;20336;-78
2024/01/15 01:33:00;;;;;;;32.80;14.93;;;0.00;99.90;;;;;;5066396;28;20032;-78
2024/01/15 01:35:26;;;;;;;30.10;13.07;;;;;;;;;;5065989;28;20029;-78
2024/01/15 01:37:52;;;;;;;29.88;12.70;;;;;;;;;;5066213;28;20241;-77
2024/01/15 01:40:18;;;;;;;27.90;14.82;;;;;;;;;;5065971;28;20025;-76
2024/01/15 01:42:45;;;;;;;34.10;14.20;;;;;;;;;;5057827;28;20044;-78
2024/01/15 01:45:11;;;;;;;24.42;12.45;;;-0.10;97.40;;;;;;5065866;28;20094;-75
2024/01/15 01:47:38;;;;;;;28.83;14.65;;;-0.20;92.90;;;;;;5066284;28;20055;-76
2024/01/15 01:50:04;;;;;;;30.48;13.75;;;;;;;;;;5065662;28;20055;-78
2024/01/15 01:52:31;;;;;;;32.05;13.35;;;-0.30;93.10;;;;;;5065691;28;20036;-78
2024/01/15 01:54:58;;;;;;;31.85;13.73;;;-0.30;93.10;;;;;;5066132;28;20021;-78
2024/01/15 01:57:24;;;;;;;37.28;15.38;;;;;;;;;;5065878;28;20016;-78
2024/01/15 01:59:50;;;;;;;34.03;13.95;;;-0.30;93.20;;;;;;5065959;28;20105;-78
2024/01/15 02:02:17;;;;;;;46.72;15.98;;;;;;;;;;5065441;28;20036;-75
2024/01/15 02:04:43;;;;;;;38.35;16.88;;;;;;;;;;5065664;28;20038;-76
2024/01/15 02:07:09;;;;;;;35.35;15.55;;;;;;;;;;5065976;28;20049;-75
2024/01/15 02:09:36;;;;;;;38.67;15.85;;;;;;;;;;5065662;28;20017;-76
2024/01/15 02:12:02;;;;;;;37.42;17.65;;;;;;;;;;5065403;28;20047;-77
2024/01/15 02:14:28;;;;;;;46.95;20.05;;;;;;;;;;5065683;28;20048;-78
2024/01/15 02:16:54;;;;;;;51.88;21.83;;;;;;;;;;5066068;28;20336;-79
2024/01/15 02:19:20;;;;;;;37.30;18.98;;;;;;;;;;5066249;28;20264;-75
2024/01/15 02:21:46;;;;;;;39.28;17.13;;;;;;;;;;5065982;28;20059;-78
2024/01/15 02:24:12;;;;;;;40.85;17.25;;;;;;;;;;5065885;28;20115;-80
2024/01/15 02:26:39;;;;;;;40.75;18.23;;;;;;;;;;5047791;28;20064;-78
2024/01/15 02:31:30;;;;;;;40.22;18.45;;;;;;;;;;5048211;22;20064;-79
2024/01/15 02:33:56;;;;;;;44.25;19.00;;;;;;;;;;5027522;28;20069;-79
2024/01/15 02:36:22;;;;;;;44.67;19.60;;;;;;;;;;5044802;28;20029;-79
2024/01/15 02:38:48;;;;;;;40.55;18.65;;;;;;;;;;5045800;28;20033;-79
2024/01/15 02:41:15;;;;;;;40.25;19.50;;;;;;;;;;5045308;28;20014;-80
2024/01/15 02:43:41;;;;;;;41.20;18.92;;;;;;;;;;5027472;28;20028;-79
2024/01/15 02:46:07;;;;;;;40.90;18.60;;;;;;;;;;5027378;28;20102;-79
2024/01/15 02:48:34;;;;;;;38.22;17.45;;;;;;;;;;5044841;28;20045;-77
2024/01/15 02:51:01;;;;;;;45.33;19.30;;;;;;;;;;5044963;28;20014;-76
2024/01/15 02:53:27;;;;;;;42.83;20.55;;;;;;;;;;5045113;28;20114;-77
2024/01/15 02:55:53;;;;;;;46.75;20.10;;;;;;;;;;5045158;28;20029;-77
2024/01/15 02:58:19;;;;;;;44.88;20.52;;;;;;;;;;5054589;22;20025;-79
2024/01/15 03:00:46;;;;;;;46.65;21.20;;;-0.60;99.90;;;;;;5083937;28;20320;-79
2024/01/15 03:03:12;;;;;;;48.92;23.40;;;;;;;;;;5084749;28;20029;-76
2024/01/15 03:05:38;;;;;;;41.95;20.00;;;;;;;;;;5064942;28;20024;-74
2024/01/15 03:08:04;;;;;;;46.97;20.98;;;;;;;;;;5082168;28;20032;-74
2024/01/15 03:10:30;;;;;;;41.85;20.45;;;;;;;;;;5081585;28;20031;-73
2024/01/15 03:12:56;;;;;;;46.65;20.17;;;;;;;;;;5063909;28;20119;-74
2024/01/15 03:15:22;;;;;;;49.10;20.40;;;;;;;;;;5082946;28;20398;-74
2024/01/15 03:17:48;;;;;;;46.88;22.83;;;;;;;;;;5082818;28;20024;-74
2024/01/15 03:20:14;;;;;;;45.70;21.48;;;;;;;;;;5082802;28;20024;-74
2024/01/15 03:22:40;;;;;;;48.70;25.27;;;;;;;;;;5082931;28;20088;-74
2024/01/15 03:25:06;;;;;;;44.63;20.73;;;-0.80;99.90;;;;;;5077130;28;20026;-74
2024/01/15 03:27:32;;;;;;;45.70;21.35;;;;;;;;;;5082836;28;20028;-74
2024/01/15 03:29:58;;;;;;;42.55;20.40;;;;;;;;;;5082446;28;20020;-74
2024/01/15 03:32:24;;;;;;;42.05;20.02;;;-0.80;99.90;;;;;;5064698;28;20016;-74
2024/01/15 03:34:52;;;;;;;41.53;20.25;;;;;;;;;;5082899;28;20028;-74
2024/01/15 03:37:19;;;;;;;45.10;22.08;;;;;;;;;;5064782;28;20013;-74
2024/01/15 03:39:45;;;;;;;47.13;21.52;;;;;;;;;;5077295;28;20055;-74
2024/01/15 03:42:11;;;;;;;41.75;19.85;;;;;;;;;;5082800;28;20300;-74
2024/01/15 03:44:37;;;;;;;54.60;23.75;;;-1.00;99.90;;;;;;5075819;28;20020;-74
2024/01/15 03:47:04;;;;;;;65.05;26.65;;;;;;;;;;5045729;28;20024;-74
2024/01/15 03:49:30;;;;;;;57.53;26.80;;;;;;;;;;5064094;28;20305;-75
2024/01/15 03:51:56;;;;;;;55.35;26.38;;;;;;;;;;5064417;28;20055;-75
2024/01/15 03:54:21;;;;;;;47.92;21.85;;;-0.90;99.90;;;;;;5084744;28;20028;-75
2024/01/15 03:56:47;;;;;;;47.88;21.48;;;;;;;;;;5065674;28;20036;-75
2024/01/15 03:59:13;;;;;;;43.78;21.15;;;;;;;;;;5084276;28;20070;-75
2024/01/15 04:01:39;;;;;;;54.08;22.25;;;;;;;;;;5083391;28;20028;-76
2024/01/15 04:04:05;;;;;;;49.63;21.38;;;;;;;;;;5082016;28;20623;-74
2024/01/15 04:06:31;;;;;;;48.75;21.33;;;;;;;;;;5081744;28;20029;-75
2024/01/15 04:08:58;;;;;;;46.00;21.27;;;-1.30;95.00;;;;;;5063587;28;20035;-75
2024/01/15 04:11:24;;;;;;;40.17;20.10;;;;;;;;;;5079426;28;20032;-73
2024/01/15 04:13:50;;;;;;;50.13;20.27;;;-1.50;99.90;;;;;;5081484;28;20228;-75
2024/01/15 04:16:16;;;;;;;49.17;21.48;;;;;;;;;;5081789;28;20088;-78
2024/01/15 04:18:42;;;;;;;43.40;19.63;;;;;;;;;;5081593;28;20024;-76
2024/01/15 04:21:08;;;;;;;46.20;20.40;;;;;;;;;;5082566;28;20024;-77
2024/01/15 04:23:34;;;;;;;47.80;21.02;;;;;;;;;;5081927;28;20316;-75
2024/01/15 04:26:00;;;;;;;42.67;20.52;;;;;;;;;;5063504;28;20476;-74
2024/01/15 04:28:26;;;;;;;41.33;19.85;;;;;;;;;;5079283;28;20039;-73
2024/01/15 04:30:52;;;;;;;46.90;21.45;;;;;;;;;;5080557;28;20035;-73
2024/01/15 04:33:18;;;;;;;50.58;21.98;;;;;;;;;;5080444;28;20317;-73
2024/01/15 04:35:44;;;;;;;44.67;20.25;;;;;;;;;;5062625;28;20029;-74
2024/01/15 04:38:10;;;;;;;50.75;22.23;;;;;;;;;;5081345;28;20134;-74
2024/01/15 04:40:36;;;;;;;50.00;23.15;;;;;;;;;;5080725;28;20025;-74
2024/01/15 04:43:02;;;;;;;55.13;24.30;;;;;;;;;;5079829;28;20042;-76
2024/01/15 04:45:28;;;;;;;47.90;22.73;;;;;;;;;;5061477;28;20266;-77
2024/01/15 04:47:58;;;;;;;57.42;26.00;;;-1.90;96.20;;;;;;5060239;28;20044;-75
2024/01/15 04:50:24;;;;;;;53.22;23.85;;;;;;;;;;5060836;28;20017;-75
2024/01/15 04:52:50;;;;;;;53.78;24.88;;;;;;;;;;5060521;28;20322;-78
2024/01/15 04:55:16;;;;;;;53.25;23.20;;;;;;;;;;5061087;28;20017;-73
2024/01/15 04:57:42;;;;;;;56.35;26.25;;;;;;;;;;5060344;28;20017;-73
2024/01/15 05:00:08;;;;;;;56.30;25.10;;;-2.00;99.90;;;;;;5064790;28;20127;-74
2024/01/15 05:02:36;;;;;;;62.45;26.77;;;;;;;;;;5084407;28;20024;-74
2024/01/15 05:05:02;;;;;;;56.92;25.73;;;;;;;;;;5084563;28;20056;-75
2024/01/15 05:07:28;;;;;;;59.13;26.38;;;;;;;;;;5084103;28;20024;-73
2024/01/15 05:09:53;;;;;;;53.00;25.40;;;-2.00;99.90;;;;;;5083427;28;20028;-73
2024/01/15 05:12:19;;;;;;;58.83;26.38;;;-1.50;99.90;;;;;;5065737;28;20012;-73
2024/01/15 05:14:45;;;;;;;67.43;28.95;;;-0.90;97.60;;;;;;5081222;28;20465;-74
2024/01/15 05:17:11;;;;;;;61.70;27.92;;;;;;;;;;5083611;28;20021;-74
2024/01/15 05:19:37;;;;;;;68.25;28.90;;;-1.90;99.90;;;;;;5065733;28;20226;-74
2024/01/15 05:22:03;;;;;;;59.53;27.95;;;;;;;;;;5084020;28;20055;-74
2024/01/15 05:24:29;;;;;;;69.57;31.02;;;;;;;;;;5081018;28;20028;-75
2024/01/15 05:26:54;;;;;;;58.90;27.25;;;-2.00;99.90;;;;;;5064261;28;20017;-75
2024/01/15 05:29:21;;;;;;;59.97;28.20;;;;;;;;;;5063981;28;20072;-74
2024/01/15 05:31:48;;;;;;;61.78;27.25;;;-2.00;99.90;;;;;;5079667;28;20032;-74
2024/01/15 05:34:14;;;;;;;59.85;26.50;;;;;;;;;;5083502;28;20036;-74
2024/01/15 05:36:40;;;;;;;64.07;27.80;;;;;;;;;;5083999;28;20235;-75
2024/01/15 05:39:07;;;;;;;62.00;27.95;;;;;;;;;;5083860;28;20048;-75
2024/01/15 05:41:33;;;;;;;65.93;29.60;;;;;;;;;;5084475;28;20032;-79
2024/01/15 05:43:59;;;;;;;67.03;28.95;;;;;;;;;;5083722;28;20086;-77
2024/01/15 05:46:25;;;;;;;65.35;30.63;;;;;;;;;;5081715;28;20059;-76
2024/01/15 05:48:51;;;;;;;84.50;36.28;;;;;;;;;;5066663;28;20024;-79
2024/01/15 05:51:17;;;;;;;85.70;38.25;;;;;;;;;;5084092;28;20016;-72
2024/01/15 05:53:44;;;;;;;80.90;36.17;;;;;;;;;;5083241;28;20032;-75
2024/01/15 05:56:11;;;;;;;83.85;35.60;;;;;;;;;;5083301;28;20050;-75
2024/01/15 05:58:37;;;;;;;78.80;34.30;;;;;;;;;;5083783;28;20017;-76
2024/01/15 06:01:03;;;;;;;76.13;35.42;;;;;;;;;;5084456;28;20024;-76
2024/01/15 06:03:29;;;;;;;76.13;36.08;;;;;;;;;;5083944;28;20028;-77
2024/01/15 06:05:54;;;;;;;72.65;32.72;;;-1.70;99.90;;;;;;5084437;28;20339;-79
2024/01/15 06:08:20;;;;;;;68.22;31.60;;;;;;;;;;5084322;28;20060;-79
2024/01/15 06:10:46;;;;;;;70.50;32.25;;;;;;;;;;5065534;28;20028;-79
2024/01/15 06:13:13;;;;;;;69.32;30.40;;;;;;;;;;5065038;28;20047;-74
2024/01/15 06:15:40;;;;;;;66.35;31.17;;;;;;;;;;5074164;28;20587;-75
2024/01/15 06:18:05;;;;;;;60.65;28.13;;;-1.30;99.90;;;;;;5062666;28;20024;-74
2024/01/15 06:20:31;;;;;;;58.80;27.95;;;;;;;;;;5062371;28;20084;-74
2024/01/15 06:22:57;;;;;;;54.20;26.65;;;;;;;;;;5075604;28;20320;-79
2024/01/15 06:25:24;;;;;;;67.40;32.08;;;;;;;;;;5065556;28;20020;-79
2024/01/15 06:27:50;;;;;;;72.80;31.35;;;;;;;;;;5077733;28;20032;-78
2024/01/15 06:30:16;;;;;;;82.43;37.50;;;;;;;;;;5077834;28;20108;-77
2024/01/15 06:32:42;;;;;;;79.05;35.50;;;;;;;;;;5065649;28;20527;-78
2024/01/15 06:35:10;;;;;;;83.47;35.17;;;;;;;;;;5083449;28;20055;-77
2024/01/15 06:37:36;;;;;;;74.82;32.33;;;;;;;;;;5065623;28;20016;-77
2024/01/15 06:40:03;;;;;;;73.75;32.42;;;;;;;;;;5083880;28;20032;-77
2024/01/15 06:42:29;;;;;;;77.35;34.78;;;;;;;;;;5083700;28;20047;-76
2024/01/15 06:44:55;;;;;;;72.05;31.33;;;;;;;;;;5083742;28;20024;-76
2024/01/15 06:47:20;;;;;;;75.03;31.98;;;;;;;;;;5081490;28;20343;-77
2024/01/15 06:49:46;;;;;;;65.78;30.17;;;;;;;;;;5083423;28;20020;-79
2024/01/15 06:52:12;;;;;;;72.57;31.67;;;;;;;;;;5083545;28;20096;-77
2024/01/15 06:54:38;;;;;;;63.85;32.05;;;;;;;;;;5065124;28;20379;-77
2024/01/15 06:57:06;;;;;;;84.72;36.58;;;-1.70;99.90;;;;;;5082553;28;20016;-77
2024/01/15 06:59:32;;;;;;;67.25;31.52;;;;;;;;;;5082618;28;20063;-77
2024/01/15 07:01:59;;;;;;;63.97;32.28;;;;;;;;;;5081871;28;20024;-77
2024/01/15 07:04:24;;;;;;;72.13;32.10;;;-1.70;99.90;;;;;;5075492;22;20075;-77
2024/01/15 07:06:50;;;;;;;66.30;31.67;;;;;;;;;;5058961;23;20338;-77
2024/01/15 07:09:16;;;;;;;73.50;33.20;;;-1.80;99.90;;;;;;5103316;28;20024;-77
2024/01/15 07:11:46;;;;;;;71.10;27.98;;;-1.60;99.90;;;;;;5085212;28;20212;-77
2024/01/15 07:14:12;;;;;;;60.03;24.35;;;;;;;;;;5084953;28;20039;-76
2024/01/15 07:16:38;;;;;;;64.75;30.40;;;;;;;;;;5103734;28;20567;-76
2024/01/15 07:19:05;;;;;;;63.30;30.20;;;;;;;;;;5103425;28;20034;-77
2024/01/15 07:21:31;;;;;;;62.85;32.35;;;;;;;;;;5102654;28;20088;-76
2024/01/15 07:23:57;;;;;;;66.40;29.65;;;;;;;;;;5102404;28;20020;-79
2024/01/15 07:26:23;;;;;;;66.75;30.25;;;;;;;;;;5081862;28;20016;-78
2024/01/15 07:28:49;;;;;;;66.45;31.00;;;;;;;;;;5096052;28;20032;-78
2024/01/15 07:31:18;;;;;;;74.07;31.65;;;-1.40;99.90;;;;;;5085358;28;20352;-79
2024/01/15 07:33:44;;;;;;;75.75;33.00;;;;;;;;;;5103727;28;20039;-80
2024/01/15 07:36:11;;;;;;;66.35;30.65;;;-1.30;99.90;;;;;;5103911;28;20020;-79
2024/01/15 07:38:37;;;;;;;76.90;33.13;;;;;;;;;;5103834;28;20031;-78
2024/01/15 07:41:03;;;;;;;71.80;33.70;;;-1.40;99.90;;;;;;5085330;28;20019;-78
2024/01/15 07:43:29;;;;;;;67.32;31.67;;;;;;;;;;5085523;28;20055;-78
2024/01/15 07:45:55;;;;;;;66.70;30.35;;;;;;;;;;5103786;28;20297;-78
2024/01/15 07:48:22;;;;;;;70.22;30.35;;;;;;;;;;5086064;28;20028;-78
2024/01/15 07:50:48;;;;;;;66.30;30.08;;;;;;;;;;5104104;28;20037;-79
2024/01/15 07:53:14;;;;;;;66.35;28.33;;;;;;;;;;5074192;28;20108;-78
2024/01/15 07:55:41;;;;;;;63.08;29.55;;;-1.10;99.90;;;;;;5068231;22;20036;-79
2024/01/15 07:58:07;;;;;;;72.07;29.13;;;-0.90;99.90;;;;;;5004069;28;20050;-78
2024/01/15 08:00:32;;;;;;;64.90;28.75;;;-0.80;99.90;;;;;;5006492;28;20146;-79
2024/01/15 08:02:58;;;;;;;64.32;28.45;;;-0.60;99.90;;;;;;5023726;28;20022;-79
2024/01/15 08:05:24;;;;;;;58.22;26.10;;;;;;;;;;5021356;28;20530;-78
2024/01/15 08:07:50;;;;;;;54.28;27.98;;;;;;;;;;5023904;28;20034;-78
2024/01/15 08:10:16;;;;;;;54.40;26.58;;;;;;;;;;5023479;28;20209;-78
2024/01/15 08:12:42;;;;;;;62.00;26.23;;;;;;;;;;5005983;28;20277;-78
2024/01/15 08:15:08;;;;;;;57.95;27.45;;;;;;;;;;5023405;28;20025;-77
2024/01/15 08:17:34;;;;;;;49.60;26.02;;;;;;;;;;5021537;28;20026;-77
2024/01/15 08:20:01;;;;;;;52.80;24.10;;;;;;;;;;5022622;28;20034;-78
2024/01/15 08:22:27;;;;;;;49.40;23.58;;;;;;;;;;5004050;28;20314;-79
2024/01/15 08:24:55;;;;;;;53.17;24.65;;;;;;;;;;5005862;28;20207;-78
2024/01/15 08:27:21;;;;;;;49.22;22.90;;;;;;;;;;5023887;28;20030;-79
2024/01/15 08:29:47;;;;;;;46.85;23.73;;;;;;;;;;5023629;28;20021;-79
2024/01/15 08:32:15;;;;;;;46.60;23.33;;;;;;;;;;5024098;28;20033;-79
2024/01/15 08:34:41;;;;;;;49.65;24.00;;;;;;;;;;5025429;28;20042;-78
2024/01/15 08:37:07;;;;;;;41.92;22.02;;;;;;;;;;5028176;28;20030;-79
2024/01/15 08:39:33;;;;;;;53.33;24.98;;;0.80;99.90;;;;;;5060576;22;20105;-79
2024/01/15 08:41:59;;;;;;;51.65;25.05;;;1.10;99.90;;;;;;5087619;28;20062;-80
2024/01/15 08:44:25;;;;;;;51.30;23.10;;;;;;;;;;5084674;22;20056;-79
2024/01/15 08:46:51;;;;;;;45.28;23.25;;;;;;;;;;5084918;28;20028;-79
2024/01/15 08:49:16;;;;;;;40.42;20.38;;;1.30;99.90;;;;;;5084901;28;20028;-79
2024/01/15 08:51:42;;;;;;;42.50;20.05;;;1.70;99.90;;;;;;5086223;28;20029;-78
2024/01/15 08:54:08;;;;;;;40.70;21.42;;;;;;;;;;5084639;28;20348;-78
2024/01/15 08:56:34;;;;;;;37.90;19.50;;;;;;;;;;5066895;28;20033;-79
2024/01/15 08:59:00;;;;;;;43.25;21.13;;;;;;;;;;5066230;28;20045;-78
2024/01/15 09:01:26;;;;;;;41.95;19.65;;;;;;;;;;5061771;28;20044;-78
2024/01/15 09:03:52;;;;;;;51.28;20.48;;;1.80;99.90;;;;;;5045350;28;20026;-77
2024/01/15 09:06:18;;;;;;;45.35;21.05;;;;;;;;;;5043999;28;20080;-77
2024/01/15 09:08:44;;;;;;;46.92;22.48;;;2.10;90.80;;;;;;5044166;28;20029;-77
2024/01/15 09:11:10;;;;;;;42.63;19.98;;;2.10;99.30;;;;;;5043604;28;20025;-78
2024/01/15 09:13:36;;;;;;;36.45;17.92;;;;;;;;;;5043701;28;20128;-76
2024/01/15 09:16:03;;;;;;;29.80;15.63;;;;;;;;;;5043858;28;20352;-77
2024/01/15 09:18:29;;;;;;;28.02;14.40;;;;;;;;;;5042594;28;20318;-77
2024/01/15 09:20:55;;;;;;;26.70;13.52;;;3.00;97.20;;;;;;5042355;28;20030;-78
2024/01/15 09:23:21;;;;;;;25.73;12.55;;;;;;;;;;5044489;28;20053;-82
2024/01/15 09:25:48;;;;;;;30.60;14.63;;;;;;;;;;5044274;28;20259;-78
2024/01/15 09:28:15;;;;;;;24.00;12.82;;;3.00;80.20;;;;;;5046087;28;20101;-78
2024/01/15 09:30:41;;;;;;;28.98;13.73;;;;;;;;;;5046114;28;20064;-79
2024/01/15 09:33:07;;;;;;;27.85;14.60;;;;;;;;;;5045010;28;20041;-79
2024/01/15 09:35:33;;;;;;;32.20;15.68;;;3.10;93.60;;;;;;5044308;28;20372;-79
2024/01/15 09:38:00;;;;;;;30.65;15.57;;;;;;;;;;5045284;28;20036;-77
2024/01/15 09:40:30;;;;;;;28.15;14.45;;;3.50;77.60;;;;;;5043835;28;20020;-81
2024/01/15 09:42:56;;;;;;;21.60;12.52;;;;;;;;;;5045129;28;20022;-77
2024/01/15 09:45:23;;;;;;;24.80;11.85;;;;;;;;;;5045511;28;20034;-78
2024/01/15 09:47:50;;;;;;;22.35;11.45;;;3.80;91.20;;;;;;5044435;28;20313;-79
2024/01/15 09:50:16;;;;;;;19.25;10.68;;;;;;;;;;5045385;28;20018;-79
2024/01/15 09:52:44;;;;;;;20.10;10.65;;;3.70;91.20;;;;;;5044140;28;20428;-79
2024/01/15 09:55:10;;;;;;;22.38;11.02;;;;;;;;;;5045225;28;20254;-77
2024/01/15 09:57:37;;;;;;;22.55;11.75;;;;;;;;;;5043444;28;20100;-78
2024/01/15 10:00:04;;;;;;;23.27;11.55;;;;;;;;;;5043991;28;20040;-80
2024/01/15 10:02:31;;;;;;;22.15;10.82;;;3.70;71.60;;;;;;5045063;28;20026;-80
2024/01/15 10:04:57;;;;;;;19.77;9.90;;;;;;;;;;5045527;28;20013;-79
2024/01/15 10:07:25;;;;;;;22.05;10.40;;;3.80;71.30;;;;;;5044148;28;20069;-80
2024/01/15 10:09:51;;;;;;;16.95;8.85;;;;;;;;;;5045328;28;20044;-79
2024/01/15 10:12:17;;;;;;;18.05;10.20;;;;;;;;;;5041255;23;20058;-78
2024/01/15 10:14:43;;;;;;;14.38;6.10;;;;;;;;;;5023580;28;20096;-80
2024/01/15 10:17:15;;;;;;;18.23;9.52;;;3.70;69.40;;;;;;5029605;28;20104;-78
2024/01/15 10:19:41;;;;;;;10.50;6.25;;;;;;;;;;5065367;28;20024;-81
2024/01/15 10:22:09;;;;;;;12.18;7.03;;;3.50;69.00;;;;;;5065507;28;20047;-78
2024/01/15 10:24:37;;;;;;;13.68;7.95;;;3.80;68.90;;;;;;5065485;28;20544;-79
2024/01/15 10:27:07;;;;;;;16.35;8.75;;;3.80;68.90;;;;;;5065227;28;20047;-79
2024/01/15 10:29:33;;;;;;;16.40;9.52;;;;;;;;;;5047337;28;20021;-79
2024/01/15 10:32:00;;;;;;;16.25;8.75;;;;;;;;;;5065554;28;20099;-79
2024/01/15 10:34:28;;;;;;;18.58;9.07;;;4.00;87.90;;;;;;5022498;28;20046;-79
2024/01/15 10:36:55;;;;;;;18.15;8.80;;;;;;;;;;5025008;28;20022;-79
2024/01/15 10:39:24;;;;;;;13.48;6.68;;;4.50;79.50;;;;;;5026011;28;20343;-81
2024/01/15 10:41:51;;;;;;;15.80;8.02;;;4.40;85.50;;;;;;5025643;28;20045;-79
2024/01/15 10:44:17;;;;;;;16.67;8.40;;;4.40;65.60;;;;;;5027080;28;20057;-79
2024/01/15 10:46:45;;;;;;;11.75;6.05;;;4.60;65.20;;;;;;5052278;23;20045;-79
2024/01/15 10:49:11;;;;;;;12.88;6.93;;;4.70;64.70;;;;;;5065877;28;20563;-79
2024/01/15 10:51:37;;;;;;;13.85;6.10;;;4.70;84.30;;;;;;5076115;23;20052;-78
2024/01/15 10:54:05;;;;;;;12.70;6.80;;;5.00;83.80;;;;;;5106956;28;20036;-78
2024/01/15 10:58:57;;;;;;;10.15;5.35;;;5.20;67.30;;;;;;5129596;23;20287;-78
2024/01/15 11:01:23;;;;;;;7.45;4.10;;;5.40;81.30;;;;;;5094870;23;20052;-80
2024/01/15 11:03:50;;;;;;;11.27;5.60;;;;;;;;;;5126015;28;20028;-79
2024/01/15 11:06:19;;;;;;;9.90;5.00;;;5.40;79.80;;;;;;5124803;28;20019;-79
2024/01/15 11:08:50;;;;;;;9.93;4.78;;;5.30;80.30;;;;;;5108194;28;20035;-78
2024/01/15 11:11:17;;;;;;;8.35;5.03;;;5.60;60.60;;;;;;5107849;28;20094;-77
2024/01/15 11:13:46;;;;;;;7.43;4.30;;;5.70;79.80;;;;;;5107648;28;20031;-82
2024/01/15 11:16:13;;;;;;;9.68;5.22;;;5.90;59.50;;;;;;5126198;28;20019;-77
2024/01/15 11:18:57;;;;;;;8.60;4.53;;;6.00;78.90;;;;;;5125841;28;20030;-82
2024/01/15 11:21:25;;;;;;;11.10;4.75;;;5.80;77.70;;;;;;5125654;28;20020;-78
2024/01/15 11:23:58;;;;;;;8.85;4.70;;;6.10;58.50;;;;;;5125841;28;20104;-79
2024/01/15 11:26:46;;;;;;;6.35;3.28;;;6.10;76.70;;;;;;5125338;28;20079;-81
2024/01/15 11:29:26;;;;;;;7.18;3.28;;;5.80;57.60;;;;;;5125556;28;20098;-80
2024/01/15 11:31:55;;;;;;;13.88;4.75;;;5.70;58.10;;;;;;5125940;28;20092;-81
2024/01/15 11:34:21;;;;;;;10.70;4.75;;;5.50;63.40;;;;;;5125675;28;20041;-78
2024/01/15 11:36:52;;;;;;;10.85;4.57;;;5.40;77.60;;;;;;5126553;28;20039;-79
2024/01/15 11:39:27;;;;;;;9.15;5.07;;;5.30;58.10;;;;;;5126789;28;20083;-78
2024/01/15 11:41:57;;;;;;;10.00;4.53;;;5.60;76.50;;;;;;5126153;28;20031;-80
2024/01/15 11:44:23;;;;;;;11.35;5.10;;;;;;;;;;5108356;28;20023;-79
2024/01/15 11:47:05;;;;;;;6.45;4.18;;;5.40;70.60;;;;;;5126862;28;20019;-78
2024/01/15 11:49:39;;;;;;;8.35;4.20;;;5.40;58.50;;;;;;5127132;28;20091;-80
2024/01/15 11:52:05;;;;;;;9.90;5.65;;;5.30;78.30;;;;;;5127871;28;20026;-79
2024/01/15 11:54:35;;;;;;;12.45;5.22;;;5.50;64.80;;;;;;5124485;28;20062;-78
2024/01/15 11:57:08;;;;;;;9.65;5.20;;;5.40;77.90;;;;;;5106390;28;20054;-78
2024/01/15 11:59:33;;;;;;;9.48;5.20;;;5.50;78.20;;;;;;5124232;28;20012;-79
2024/01/15 12:02:00;;;;;;;11.75;4.70;;;;;;;;;;5123830;28;20067;-78
2024/01/15 12:04:26;;;;;;;12.65;5.22;;;;;;;;;;5121238;28;20295;-76
2024/01/15 12:06:52;;;;;;;8.00;4.32;;;;;;;;;;5122267;28;20047;-77
2024/01/15 12:09:21;;;;;;;7.28;4.50;;;5.70;57.60;;;;;;5108082;28;20383;-79
2024/01/15 12:11:57;;;;;;;8.65;4.68;;;5.80;57.70;;;;;;5128280;28;20043;-78
2024/01/15 12:14:23;;;;;;;8.50;4.05;;;5.80;77.00;;;;;;5108893;28;20077;-79
2024/01/15 12:16:49;;;;;;;9.10;4.80;;;5.90;61.30;;;;;;5127520;28;20339;-79
2024/01/15 12:19:16;;;;;;;8.40;4.53;;;5.90;57.50;;;;;;5128709;28;20081;-78
2024/01/15 12:21:42;;;;;;;5.18;3.35;;;;;;;;;;5127589;28;20347;-81
2024/01/15 12:24:08;;;;;;;7.40;4.07;;;5.70;76.20;;;;;;5128254;28;20023;-80
2024/01/15 12:26:35;;;;;;;10.23;5.45;;;6.00;56.90;;;;;;5109588;28;20022;-81
2024/01/15 12:29:07;;;;;;;6.82;4.20;;;6.30;76.30;;;;;;5127679;28;20024;-82
2024/01/15 12:31:32;;;;;;;8.15;3.72;;;6.60;76.30;;;;;;5127152;28;20018;-79
2024/01/15 12:33:58;;;;;;;7.20;3.45;;;;;;;;;;5127811;28;20058;-82
2024/01/15 12:36:25;;;;;;;8.48;4.80;;;5.90;69.60;;;;;;5127269;28;20023;-81
2024/01/15 12:38:51;;;;;;;8.88;5.18;;;5.90;75.90;;;;;;5127126;28;20083;-81
2024/01/15 12:41:17;;;;;;;10.18;5.60;;;;;;;;;;5109393;28;20024;-81
2024/01/15 12:43:43;;;;;;;8.93;5.18;;;6.60;74.90;;;;;;5126190;28;20099;-81
2024/01/15 12:46:09;;;;;;;10.50;5.93;;;6.60;73.50;;;;;;5106953;28;20042;-80
2024/01/15 12:48:35;;;;;;;8.85;5.07;;;;;;;;;;5125973;28;20315;-78
2024/01/15 12:51:01;;;;;;;10.48;5.05;;;7.70;57.70;;;;;;5125470;28;20203;-82
2024/01/15 12:53:27;;;;;;;15.13;4.95;;;;;;;;;;5114785;28;20043;-84
2024/01/15 12:55:53;;;;;;;7.22;4.95;;;9.40;53.70;;;;;;5120099;28;20193;-83
2024/01/15 12:58:18;;;;;;;8.30;5.10;;;10.20;53.10;;;;;;5125011;28;20072;-73
2024/01/15 13:00:44;;;;;;;8.10;5.00;;;11.20;51.60;;;;;;5124295;28;20056;-73
2024/01/15 13:03:10;;;;;;;9.88;3.88;;;11.90;48.30;;;;;;5124195;28;20252;-73
2024/01/15 13:05:36;;;;;;;8.45;5.90;;;13.30;53.60;;;;;;5124318;28;20015;-75
2024/01/15 13:08:03;;;;;;;9.18;4.57;;;13.10;46.00;;;;;;5124365;28;20043;-76
2024/01/15 13:10:30;;;;;;;9.27;5.80;;;13.80;45.70;;;;;;5105861;28;20023;-74
2024/01/15 13:12:55;;;;;;;7.63;4.95;;;14.60;42.70;;;;;;5124066;28;20016;-74
2024/01/15 13:15:21;;;;;;;5.88;4.32;;;15.40;42.00;;;;;;5103930;28;20122;-76
2024/01/15 13:17:47;;;;;;;6.95;5.40;;;16.00;38.50;;;;;;5103682;28;20418;-75
2024/01/15 13:20:13;;;;;;;8.20;5.28;;;16.70;35.20;;;;;;5103040;28;20087;-74
2024/01/15 13:22:40;;;;;;;7.88;5.18;;;17.30;36.10;;;;;;5103557;28;20016;-74
2024/01/15 13:25:07;;;;;;;7.85;5.38;;;18.60;34.00;;;;;;5103435;28;20235;-75
2024/01/15 13:27:35;;;;;;;10.15;5.20;;;20.50;32.20;;;;;;5103499;28;20030;-75
2024/01/15 13:30:00;;;;;;;6.57;4.00;;;22.20;30.60;;;;;;5112918;28;20050;-75
2024/01/15 13:32:28;;;;;;;8.23;6.43;;;22.90;29.60;;;;;;5104112;28;20316;-75
2024/01/15 13:34:56;;;;;;;8.30;4.55;;;23.50;29.10;;;;;;5124043;28;20027;-75
2024/01/15 13:37:24;;;;;;;4.73;4.17;;;24.20;28.40;;;;;;5123230;28;20103;-75
2024/01/15 13:39:51;;;;;;;5.50;4.82;;;23.90;27.10;;;;;;5114643;28;20311;-73